sensor_id;sensor_type;location;lat;lon;timestamp;P1;durP1;ratioP1;P2;durP2;ratioP2
61460;SDS011;47325;50.506;4.472;2023-05-07T00:03:06;3.40;;;1.90;;
61460;SDS011;47325;50.506;4.472;2023-05-07T00:08:52;3.80;;;1.90;;
61460;SDS011;47325;50.506;4.472;2023-05-07T00:14:39;3.30;;;1.90;;
61460;SDS011;47325;50.506;4.472;2023-05-07T00:20:24;3.20;;;2.10;;
61460;SDS011;47325;50.506;4.472;2023-05-07T00:26:08;4.20;;;2.00;;
61460;SDS011;47325;50.506;4.472;2023-05-07T00:31:53;3.60;;;2.10;;
61460;SDS011;47325;50.506;4.472;2023-05-07T00:37:38;3.70;;;2.10;;
61460;SDS011;47325;50.506;4.472;2023-05-07T00:43:27;4.10;;;2.10;;
61460;SDS011;47325;50.506;4.472;2023-05-07T00:49:11;3.40;;;2.10;;
61460;SDS011;47325;50.506;4.472;2023-05-07T00:54:56;4.60;;;2.40;;
61460;SDS011;47325;50.506;4.472;2023-05-07T01:00:41;5.50;;;2.30;;
61460;SDS011;47325;50.506;4.472;2023-05-07T01:06:26;3.90;;;2.20;;
61460;SDS011;47325;50.506;4.472;2023-05-07T01:12:13;4.00;;;2.20;;
61460;SDS011;47325;50.506;4.472;2023-05-07T01:17:57;4.50;;;2.00;;
61460;SDS011;47325;50.506;4.472;2023-05-07T01:23:43;3.50;;;2.30;;
61460;SDS011;47325;50.506;4.472;2023-05-07T01:29:28;4.00;;;2.30;;
61460;SDS011;47325;50.506;4.472;2023-05-07T01:35:15;4.20;;;2.10;;
61460;SDS011;47325;50.506;4.472;2023-05-07T01:41:03;3.10;;;2.10;;
61460;SDS011;47325;50.506;4.472;2023-05-07T01:46:48;5.10;;;2.00;;
61460;SDS011;47325;50.506;4.472;2023-05-07T01:52:33;3.70;;;2.20;;
61460;SDS011;47325;50.506;4.472;2023-05-07T01:58:18;3.90;;;2.10;;
61460;SDS011;47325;50.506;4.472;2023-05-07T02:04:03;3.40;;;2.10;;
61460;SDS011;47325;50.506;4.472;2023-05-07T02:09:49;3.50;;;2.20;;
61460;SDS011;47325;50.506;4.472;2023-05-07T02:15:34;3.90;;;2.30;;
61460;SDS011;47325;50.506;4.472;2023-05-07T02:21:20;3.30;;;2.10;;
61460;SDS011;47325;50.506;4.472;2023-05-07T02:27:04;3.50;;;2.40;;
61460;SDS011;47325;50.506;4.472;2023-05-07T02:32:49;3.60;;;2.30;;
61460;SDS011;47325;50.506;4.472;2023-05-07T02:38:34;5.00;;;2.40;;
61460;SDS011;47325;50.506;4.472;2023-05-07T02:44:19;3.30;;;2.20;;
61460;SDS011;47325;50.506;4.472;2023-05-07T02:50:04;3.60;;;2.40;;
61460;SDS011;47325;50.506;4.472;2023-05-07T02:55:50;4.20;;;2.40;;
61460;SDS011;47325;50.506;4.472;2023-05-07T03:01:34;4.60;;;2.30;;
61460;SDS011;47325;50.506;4.472;2023-05-07T03:07:19;3.80;;;2.20;;
61460;SDS011;47325;50.506;4.472;2023-05-07T03:13:04;4.30;;;2.50;;
61460;SDS011;47325;50.506;4.472;2023-05-07T03:18:50;4.50;;;2.10;;
61460;SDS011;47325;50.506;4.472;2023-05-07T03:24:34;4.70;;;2.60;;
61460;SDS011;47325;50.506;4.472;2023-05-07T03:30:19;3.70;;;2.20;;
61460;SDS011;47325;50.506;4.472;2023-05-07T03:36:04;6.10;;;2.40;;
61460;SDS011;47325;50.506;4.472;2023-05-07T03:41:50;4.50;;;2.40;;
61460;SDS011;47325;50.506;4.472;2023-05-07T03:47:35;5.10;;;2.30;;
61460;SDS011;47325;50.506;4.472;2023-05-07T03:53:20;3.90;;;2.50;;
61460;SDS011;47325;50.506;4.472;2023-05-07T03:59:04;5.00;;;2.50;;
61460;SDS011;47325;50.506;4.472;2023-05-07T04:04:49;3.90;;;2.30;;
61460;SDS011;47325;50.506;4.472;2023-05-07T04:10:34;4.70;;;2.60;;
61460;SDS011;47325;50.506;4.472;2023-05-07T04:16:19;4.60;;;2.50;;
61460;SDS011;47325;50.506;4.472;2023-05-07T04:22:04;3.80;;;2.60;;
61460;SDS011;47325;50.506;4.472;2023-05-07T04:27:48;3.60;;;2.40;;
61460;SDS011;47325;50.506;4.472;2023-05-07T04:33:35;4.20;;;2.60;;
61460;SDS011;47325;50.506;4.472;2023-05-07T04:39:20;5.20;;;2.90;;
61460;SDS011;47325;50.506;4.472;2023-05-07T04:45:05;4.20;;;2.30;;
61460;SDS011;47325;50.506;4.472;2023-05-07T04:50:51;4.30;;;2.60;;
61460;SDS011;47325;50.506;4.472;2023-05-07T04:56:36;4.30;;;2.60;;
61460;SDS011;47325;50.506;4.472;2023-05-07T05:02:20;3.80;;;2.40;;
61460;SDS011;47325;50.506;4.472;2023-05-07T05:08:06;4.00;;;2.60;;
61460;SDS011;47325;50.506;4.472;2023-05-07T05:13:51;4.20;;;2.40;;
61460;SDS011;47325;50.506;4.472;2023-05-07T05:19:35;4.30;;;2.40;;
61460;SDS011;47325;50.506;4.472;2023-05-07T05:25:20;4.80;;;2.60;;
61460;SDS011;47325;50.506;4.472;2023-05-07T05:31:05;4.20;;;2.60;;
61460;SDS011;47325;50.506;4.472;2023-05-07T05:36:50;4.10;;;2.30;;
61460;SDS011;47325;50.506;4.472;2023-05-07T05:42:35;5.60;;;2.40;;
61460;SDS011;47325;50.506;4.472;2023-05-07T05:48:20;6.00;;;2.90;;
61460;SDS011;47325;50.506;4.472;2023-05-07T05:54:04;4.50;;;2.80;;
61460;SDS011;47325;50.506;4.472;2023-05-07T05:59:50;4.40;;;2.80;;
61460;SDS011;47325;50.506;4.472;2023-05-07T06:05:34;4.00;;;2.80;;
61460;SDS011;47325;50.506;4.472;2023-05-07T06:11:19;4.60;;;2.80;;
61460;SDS011;47325;50.506;4.472;2023-05-07T06:17:04;4.80;;;2.40;;
61460;SDS011;47325;50.506;4.472;2023-05-07T06:22:49;5.40;;;2.60;;
61460;SDS011;47325;50.506;4.472;2023-05-07T06:28:33;4.70;;;2.70;;
61460;SDS011;47325;50.506;4.472;2023-05-07T06:34:18;4.10;;;2.30;;
61460;SDS011;47325;50.506;4.472;2023-05-07T06:40:04;4.10;;;2.40;;
61460;SDS011;47325;50.506;4.472;2023-05-07T06:45:49;4.30;;;2.30;;
61460;SDS011;47325;50.506;4.472;2023-05-07T06:51:35;5.10;;;2.10;;
61460;SDS011;47325;50.506;4.472;2023-05-07T06:57:20;4.90;;;2.40;;
61460;SDS011;47325;50.506;4.472;2023-05-07T07:03:05;5.30;;;2.30;;
61460;SDS011;47325;50.506;4.472;2023-05-07T07:08:50;5.00;;;2.20;;
61460;SDS011;47325;50.506;4.472;2023-05-07T07:14:35;3.10;;;2.10;;
61460;SDS011;47325;50.506;4.472;2023-05-07T07:20:20;4.90;;;2.10;;
61460;SDS011;47325;50.506;4.472;2023-05-07T07:26:05;4.80;;;1.90;;
61460;SDS011;47325;50.506;4.472;2023-05-07T07:31:49;4.90;;;2.00;;
61460;SDS011;47325;50.506;4.472;2023-05-07T07:37:34;5.00;;;2.00;;
61460;SDS011;47325;50.506;4.472;2023-05-07T07:43:19;3.40;;;2.10;;
61460;SDS011;47325;50.506;4.472;2023-05-07T07:49:04;4.50;;;2.00;;
61460;SDS011;47325;50.506;4.472;2023-05-07T07:54:49;3.20;;;2.00;;
61460;SDS011;47325;50.506;4.472;2023-05-07T08:00:34;3.70;;;1.90;;
61460;SDS011;47325;50.506;4.472;2023-05-07T08:06:18;3.30;;;1.80;;
61460;SDS011;47325;50.506;4.472;2023-05-07T08:12:04;3.50;;;1.70;;
61460;SDS011;47325;50.506;4.472;2023-05-07T08:17:49;2.40;;;1.80;;
61460;SDS011;47325;50.506;4.472;2023-05-07T08:23:34;4.70;;;1.80;;
61460;SDS011;47325;50.506;4.472;2023-05-07T08:29:20;4.00;;;1.90;;
61460;SDS011;47325;50.506;4.472;2023-05-07T08:35:05;3.20;;;1.70;;
61460;SDS011;47325;50.506;4.472;2023-05-07T08:40:50;3.70;;;1.60;;
61460;SDS011;47325;50.506;4.472;2023-05-07T08:46:35;3.80;;;1.90;;
61460;SDS011;47325;50.506;4.472;2023-05-07T08:52:21;5.30;;;1.90;;
61460;SDS011;47325;50.506;4.472;2023-05-07T08:58:05;3.00;;;1.70;;
61460;SDS011;47325;50.506;4.472;2023-05-07T09:03:50;2.60;;;1.60;;
61460;SDS011;47325;50.506;4.472;2023-05-07T09:09:37;3.40;;;1.60;;
61460;SDS011;47325;50.506;4.472;2023-05-07T09:15:24;3.00;;;1.90;;
61460;SDS011;47325;50.506;4.472;2023-05-07T09:21:08;3.20;;;1.60;;
61460;SDS011;47325;50.506;4.472;2023-05-07T09:26:53;3.00;;;1.70;;
61460;SDS011;47325;50.506;4.472;2023-05-07T09:32:38;3.80;;;1.90;;
61460;SDS011;47325;50.506;4.472;2023-05-07T09:38:24;2.90;;;1.80;;
61460;SDS011;47325;50.506;4.472;2023-05-07T09:44:10;4.30;;;1.90;;
61460;SDS011;47325;50.506;4.472;2023-05-07T09:49:55;2.70;;;1.90;;
61460;SDS011;47325;50.506;4.472;2023-05-07T09:55:40;3.40;;;1.80;;
61460;SDS011;47325;50.506;4.472;2023-05-07T10:01:26;2.80;;;1.70;;
61460;SDS011;47325;50.506;4.472;2023-05-07T10:07:11;3.00;;;1.90;;
61460;SDS011;47325;50.506;4.472;2023-05-07T10:12:56;4.50;;;2.00;;
61460;SDS011;47325;50.506;4.472;2023-05-07T10:18:41;3.90;;;2.00;;
61460;SDS011;47325;50.506;4.472;2023-05-07T10:24:31;3.70;;;1.80;;
61460;SDS011;47325;50.506;4.472;2023-05-07T10:30:20;3.70;;;2.20;;
61460;SDS011;47325;50.506;4.472;2023-05-07T10:36:17;4.10;;;2.00;;
61460;SDS011;47325;50.506;4.472;2023-05-07T10:42:11;2.50;;;1.70;;
61460;SDS011;47325;50.506;4.472;2023-05-07T10:54:22;3.40;;;1.90;;
61460;SDS011;47325;50.506;4.472;2023-05-07T11:00:16;4.10;;;1.90;;
61460;SDS011;47325;50.506;4.472;2023-05-07T11:06:15;2.40;;;1.80;;
61460;SDS011;47325;50.506;4.472;2023-05-07T11:12:00;3.40;;;2.00;;
61460;SDS011;47325;50.506;4.472;2023-05-07T11:24:00;2.60;;;1.60;;
61460;SDS011;47325;50.506;4.472;2023-05-07T11:29:45;3.20;;;1.60;;
61460;SDS011;47325;50.506;4.472;2023-05-07T11:35:30;2.70;;;1.80;;
61460;SDS011;47325;50.506;4.472;2023-05-07T11:41:19;2.40;;;1.60;;
61460;SDS011;47325;50.506;4.472;2023-05-07T11:47:04;3.20;;;1.70;;
61460;SDS011;47325;50.506;4.472;2023-05-07T11:52:53;2.80;;;1.50;;
61460;SDS011;47325;50.506;4.472;2023-05-07T11:58:39;1.90;;;1.40;;
61460;SDS011;47325;50.506;4.472;2023-05-07T12:04:28;2.50;;;1.50;;
61460;SDS011;47325;50.506;4.472;2023-05-07T12:10:14;1.90;;;1.50;;
61460;SDS011;47325;50.506;4.472;2023-05-07T12:15:59;2.60;;;1.50;;
61460;SDS011;47325;50.506;4.472;2023-05-07T12:21:45;2.20;;;1.50;;
61460;SDS011;47325;50.506;4.472;2023-05-07T12:27:30;1.90;;;1.40;;
61460;SDS011;47325;50.506;4.472;2023-05-07T12:33:15;2.90;;;1.60;;
61460;SDS011;47325;50.506;4.472;2023-05-07T12:39:01;2.90;;;1.60;;
61460;SDS011;47325;50.506;4.472;2023-05-07T12:44:45;2.40;;;1.40;;
61460;SDS011;47325;50.506;4.472;2023-05-07T12:50:30;2.00;;;1.40;;
61460;SDS011;47325;50.506;4.472;2023-05-07T12:56:15;2.10;;;1.40;;
61460;SDS011;47325;50.506;4.472;2023-05-07T13:02:00;1.90;;;1.20;;
61460;SDS011;47325;50.506;4.472;2023-05-07T13:07:56;2.00;;;1.20;;
61460;SDS011;47325;50.506;4.472;2023-05-07T13:13:41;1.70;;;1.30;;
61460;SDS011;47325;50.506;4.472;2023-05-07T13:19:26;3.10;;;1.40;;
61460;SDS011;47325;50.506;4.472;2023-05-07T13:25:14;1.50;;;1.20;;
61460;SDS011;47325;50.506;4.472;2023-05-07T13:30:59;2.70;;;1.30;;
61460;SDS011;47325;50.506;4.472;2023-05-07T13:36:43;1.60;;;1.20;;
61460;SDS011;47325;50.506;4.472;2023-05-07T13:42:28;1.90;;;1.10;;
61460;SDS011;47325;50.506;4.472;2023-05-07T13:48:13;2.00;;;1.20;;
61460;SDS011;47325;50.506;4.472;2023-05-07T13:53:58;1.70;;;1.20;;
61460;SDS011;47325;50.506;4.472;2023-05-07T13:59:43;1.30;;;1.20;;
61460;SDS011;47325;50.506;4.472;2023-05-07T14:05:27;2.00;;;1.40;;
61460;SDS011;47325;50.506;4.472;2023-05-07T14:11:12;1.70;;;1.20;;
61460;SDS011;47325;50.506;4.472;2023-05-07T14:16:57;2.10;;;1.10;;
61460;SDS011;47325;50.506;4.472;2023-05-07T14:22:42;3.90;;;1.20;;
61460;SDS011;47325;50.506;4.472;2023-05-07T14:28:27;1.90;;;1.30;;
61460;SDS011;47325;50.506;4.472;2023-05-07T14:34:11;2.40;;;1.10;;
61460;SDS011;47325;50.506;4.472;2023-05-07T14:39:56;2.10;;;1.10;;
61460;SDS011;47325;50.506;4.472;2023-05-07T14:45:40;1.30;;;1.00;;
61460;SDS011;47325;50.506;4.472;2023-05-07T14:51:26;1.40;;;1.00;;
61460;SDS011;47325;50.506;4.472;2023-05-07T14:57:11;1.80;;;1.00;;
61460;SDS011;47325;50.506;4.472;2023-05-07T15:02:55;1.40;;;1.00;;
61460;SDS011;47325;50.506;4.472;2023-05-07T15:08:45;2.00;;;1.10;;
61460;SDS011;47325;50.506;4.472;2023-05-07T15:14:30;1.70;;;1.20;;
61460;SDS011;47325;50.506;4.472;2023-05-07T15:20:15;1.90;;;1.00;;
61460;SDS011;47325;50.506;4.472;2023-05-07T15:26:00;1.70;;;1.00;;
61460;SDS011;47325;50.506;4.472;2023-05-07T15:31:44;1.00;;;0.90;;
61460;SDS011;47325;50.506;4.472;2023-05-07T15:37:29;1.30;;;0.90;;
61460;SDS011;47325;50.506;4.472;2023-05-07T15:43:14;1.40;;;1.00;;
61460;SDS011;47325;50.506;4.472;2023-05-07T15:48:59;1.30;;;0.90;;
61460;SDS011;47325;50.506;4.472;2023-05-07T15:54:46;1.70;;;1.00;;
61460;SDS011;47325;50.506;4.472;2023-05-07T16:00:30;1.10;;;1.00;;
61460;SDS011;47325;50.506;4.472;2023-05-07T16:06:15;1.60;;;0.90;;
61460;SDS011;47325;50.506;4.472;2023-05-07T16:12:00;1.70;;;0.90;;
61460;SDS011;47325;50.506;4.472;2023-05-07T16:17:44;1.40;;;0.90;;
61460;SDS011;47325;50.506;4.472;2023-05-07T16:23:30;1.10;;;0.90;;
61460;SDS011;47325;50.506;4.472;2023-05-07T16:29:15;1.10;;;0.90;;
61460;SDS011;47325;50.506;4.472;2023-05-07T16:35:00;1.60;;;1.00;;
61460;SDS011;47325;50.506;4.472;2023-05-07T16:40:44;1.20;;;1.00;;
61460;SDS011;47325;50.506;4.472;2023-05-07T16:46:29;1.20;;;1.10;;
61460;SDS011;47325;50.506;4.472;2023-05-07T16:52:14;1.50;;;1.10;;
61460;SDS011;47325;50.506;4.472;2023-05-07T16:57:59;1.40;;;1.10;;
61460;SDS011;47325;50.506;4.472;2023-05-07T17:03:44;1.20;;;1.00;;
61460;SDS011;47325;50.506;4.472;2023-05-07T17:09:29;1.60;;;1.20;;
61460;SDS011;47325;50.506;4.472;2023-05-07T17:15:14;1.50;;;1.40;;
61460;SDS011;47325;50.506;4.472;2023-05-07T17:20:58;1.40;;;1.30;;
61460;SDS011;47325;50.506;4.472;2023-05-07T17:26:43;1.50;;;1.40;;
61460;SDS011;47325;50.506;4.472;2023-05-07T17:32:28;1.80;;;1.70;;
61460;SDS011;47325;50.506;4.472;2023-05-07T17:38:13;1.70;;;1.60;;
61460;SDS011;47325;50.506;4.472;2023-05-07T17:43:57;1.80;;;1.70;;
61460;SDS011;47325;50.506;4.472;2023-05-07T17:49:42;1.80;;;1.70;;
61460;SDS011;47325;50.506;4.472;2023-05-07T17:55:27;1.70;;;1.60;;
61460;SDS011;47325;50.506;4.472;2023-05-07T18:01:12;2.10;;;1.90;;
61460;SDS011;47325;50.506;4.472;2023-05-07T18:06:57;2.40;;;1.70;;
61460;SDS011;47325;50.506;4.472;2023-05-07T18:12:42;2.60;;;1.90;;
61460;SDS011;47325;50.506;4.472;2023-05-07T18:18:26;2.00;;;1.80;;
61460;SDS011;47325;50.506;4.472;2023-05-07T18:24:11;1.90;;;1.80;;
61460;SDS011;47325;50.506;4.472;2023-05-07T18:29:56;2.30;;;1.80;;
61460;SDS011;47325;50.506;4.472;2023-05-07T18:35:41;2.60;;;2.10;;
61460;SDS011;47325;50.506;4.472;2023-05-07T18:41:26;2.70;;;2.00;;
61460;SDS011;47325;50.506;4.472;2023-05-07T18:47:12;2.30;;;2.10;;
61460;SDS011;47325;50.506;4.472;2023-05-07T18:52:57;2.20;;;2.00;;
61460;SDS011;47325;50.506;4.472;2023-05-07T18:58:42;2.30;;;1.90;;
61460;SDS011;47325;50.506;4.472;2023-05-07T19:04:27;2.20;;;2.00;;
61460;SDS011;47325;50.506;4.472;2023-05-07T19:10:13;3.10;;;2.00;;
61460;SDS011;47325;50.506;4.472;2023-05-07T19:15:57;3.50;;;2.20;;
61460;SDS011;47325;50.506;4.472;2023-05-07T19:21:43;3.60;;;2.20;;
61460;SDS011;47325;50.506;4.472;2023-05-07T19:27:28;3.60;;;2.30;;
61460;SDS011;47325;50.506;4.472;2023-05-07T19:33:13;2.60;;;2.40;;
61460;SDS011;47325;50.506;4.472;2023-05-07T19:38:58;2.50;;;2.30;;
61460;SDS011;47325;50.506;4.472;2023-05-07T19:44:42;3.00;;;2.40;;
61460;SDS011;47325;50.506;4.472;2023-05-07T19:50:27;2.50;;;2.30;;
61460;SDS011;47325;50.506;4.472;2023-05-07T19:56:12;2.50;;;2.30;;
61460;SDS011;47325;50.506;4.472;2023-05-07T20:01:57;2.70;;;2.40;;
61460;SDS011;47325;50.506;4.472;2023-05-07T20:07:42;3.50;;;2.20;;
61460;SDS011;47325;50.506;4.472;2023-05-07T20:13:29;2.70;;;2.20;;
61460;SDS011;47325;50.506;4.472;2023-05-07T20:19:14;3.10;;;2.50;;
61460;SDS011;47325;50.506;4.472;2023-05-07T20:24:59;2.40;;;2.20;;
61460;SDS011;47325;50.506;4.472;2023-05-07T20:30:45;2.40;;;2.20;;
61460;SDS011;47325;50.506;4.472;2023-05-07T20:36:29;2.90;;;2.60;;
61460;SDS011;47325;50.506;4.472;2023-05-07T20:42:14;2.80;;;2.40;;
61460;SDS011;47325;50.506;4.472;2023-05-07T20:47:59;3.20;;;2.20;;
61460;SDS011;47325;50.506;4.472;2023-05-07T20:53:44;2.70;;;2.50;;
61460;SDS011;47325;50.506;4.472;2023-05-07T20:59:31;3.50;;;2.60;;
61460;SDS011;47325;50.506;4.472;2023-05-07T21:05:16;2.70;;;2.50;;
61460;SDS011;47325;50.506;4.472;2023-05-07T21:11:01;2.90;;;2.60;;
61460;SDS011;47325;50.506;4.472;2023-05-07T21:16:46;2.60;;;2.30;;
61460;SDS011;47325;50.506;4.472;2023-05-07T21:22:31;3.10;;;2.50;;
61460;SDS011;47325;50.506;4.472;2023-05-07T21:28:16;2.50;;;2.30;;
61460;SDS011;47325;50.506;4.472;2023-05-07T21:34:00;3.80;;;2.80;;
61460;SDS011;47325;50.506;4.472;2023-05-07T21:39:45;2.80;;;2.40;;
61460;SDS011;47325;50.506;4.472;2023-05-07T21:45:30;2.90;;;2.50;;
61460;SDS011;47325;50.506;4.472;2023-05-07T21:51:21;3.50;;;2.40;;
61460;SDS011;47325;50.506;4.472;2023-05-07T21:57:07;4.10;;;2.30;;
61460;SDS011;47325;50.506;4.472;2023-05-07T22:02:52;3.70;;;2.40;;
61460;SDS011;47325;50.506;4.472;2023-05-07T22:08:37;3.10;;;2.30;;
61460;SDS011;47325;50.506;4.472;2023-05-07T22:14:23;3.40;;;2.40;;
61460;SDS011;47325;50.506;4.472;2023-05-07T22:20:09;2.80;;;2.50;;
61460;SDS011;47325;50.506;4.472;2023-05-07T22:25:56;2.60;;;2.40;;
61460;SDS011;47325;50.506;4.472;2023-05-07T22:31:41;2.70;;;2.40;;
61460;SDS011;47325;50.506;4.472;2023-05-07T22:37:26;3.20;;;2.60;;
61460;SDS011;47325;50.506;4.472;2023-05-07T22:43:11;2.40;;;2.20;;
61460;SDS011;47325;50.506;4.472;2023-05-07T22:48:56;3.60;;;2.60;;
61460;SDS011;47325;50.506;4.472;2023-05-07T22:54:41;3.10;;;2.50;;
61460;SDS011;47325;50.506;4.472;2023-05-07T23:00:26;2.90;;;2.60;;
61460;SDS011;47325;50.506;4.472;2023-05-07T23:06:11;2.90;;;2.60;;
61460;SDS011;47325;50.506;4.472;2023-05-07T23:11:55;2.80;;;2.50;;
61460;SDS011;47325;50.506;4.472;2023-05-07T23:17:40;2.90;;;2.40;;
61460;SDS011;47325;50.506;4.472;2023-05-07T23:23:25;2.90;;;2.40;;
61460;SDS011;47325;50.506;4.472;2023-05-07T23:29:10;2.60;;;2.40;;
61460;SDS011;47325;50.506;4.472;2023-05-07T23:34:55;2.60;;;2.40;;
61460;SDS011;47325;50.506;4.472;2023-05-07T23:40:40;2.70;;;2.30;;
61460;SDS011;47325;50.506;4.472;2023-05-07T23:46:24;2.70;;;2.30;;
61460;SDS011;47325;50.506;4.472;2023-05-07T23:52:09;3.60;;;2.50;;
61460;SDS011;47325;50.506;4.472;2023-05-07T23:57:54;2.70;;;2.40;;
